Terminal Aerodrome Forecast
Issued by NWS

Home | Current Version | Previous Version | Graphics & Text | Print | Product List | Glossary On
Versions: 1 2 3 4 5 6 7 8 9 10 11 12 13 14 15 16 17 18 19 20 21 22 23 24
447
FTUS43 KLOT 151729
TAFDPA
TAF
KDPA 151729Z 1518/1618 29019G27KT P6SM OVC035
     FM152100 32014G22KT P6SM BKN040
     FM152300 32010KT P6SM BKN050
     FM160300 27005KT P6SM SCT250=

USA.gov is the U.S. government's official web portal to all federal, state and local government web resources and services.